<?xml version="1.0" encoding="UTF-8" standalone="no" ?>
<gpx xmlns="http://www.topografix.com/GPX/1/1" xmlns:xsi="http://www.w3.org/2001/XMLSchema-instance" xsi:schemaLocation="http://www.topografix.com/GPX/1/1 http://www.topografix.com/GPX/1/1/gpx.xsd" version="1.1" creator="VisuGPX - https://www.visugpx.com">
  <metadata>
    <name>savel le 06/07/15</name>
    <desc><![CDATA[trace a savel en kitefoil le 06/7/15]]></desc>
  </metadata>
  <trk>
    <name><![CDATA[Mayres-Savel Autre]]></name>
    <trkseg>
      <trkpt lat="44.87926" lon="5.68702">
        <ele>484</ele>
        <time>2015-07-06T15:25:17.000Z</time>
      </trkpt>
      <trkpt lat="44.87964" lon="5.68732">
        <ele>484</ele>
        <time>2015-07-06T15:25:23.000Z</time>
      </trkpt>
      <trkpt lat="44.87975" lon="5.6874">
        <ele>484</ele>
        <time>2015-07-06T15:25:25.000Z</time>
      </trkpt>
      <trkpt lat="44.8798" lon="5.68753">
        <ele>484</ele>
        <time>2015-07-06T15:25:27.000Z</time>
      </trkpt>
      <trkpt lat="44.87978" lon="5.68763">
        <ele>484</ele>
        <time>2015-07-06T15:25:30.000Z</time>
      </trkpt>
      <trkpt lat="44.87965" lon="5.68762">
        <ele>484</ele>
        <time>2015-07-06T15:25:34.000Z</time>
      </trkpt>
      <trkpt lat="44.87956" lon="5.68744">
        <ele>484</ele>
        <time>2015-07-06T15:25:38.000Z</time>
      </trkpt>
      <trkpt lat="44.87956" lon="5.68739">
        <ele>484</ele>
        <time>2015-07-06T15:25:39.000Z</time>
      </trkpt>
      <trkpt lat="44.87953" lon="5.68735">
        <ele>484</ele>
        <time>2015-07-06T15:25:40.000Z</time>
      </trkpt>
      <trkpt lat="44.8795" lon="5.6873">
        <ele>484</ele>
        <time>2015-07-06T15:25:41.000Z</time>
      </trkpt>
      <trkpt lat="44.87945" lon="5.68707">
        <ele>484</ele>
        <time>2015-07-06T15:25:44.000Z</time>
      </trkpt>
      <trkpt lat="44.87945" lon="5.68689">
        <ele>484</ele>
        <time>2015-07-06T15:25:46.000Z</time>
      </trkpt>
      <trkpt lat="44.87944" lon="5.68673">
        <ele>484</ele>
        <time>2015-07-06T15:25:48.000Z</time>
      </trkpt>
      <trkpt lat="44.87941" lon="5.68665">
        <ele>484</ele>
        <time>2015-07-06T15:25:49.000Z</time>
      </trkpt>
      <trkpt lat="44.87937" lon="5.68647">
        <ele>484</ele>
        <time>2015-07-06T15:25:51.000Z</time>
      </trkpt>
      <trkpt lat="44.87931" lon="5.68618">
        <ele>484</ele>
        <time>2015-07-06T15:25:54.000Z</time>
      </trkpt>
      <trkpt lat="44.8793" lon="5.68574">
        <ele>484</ele>
        <time>2015-07-06T15:25:58.000Z</time>
      </trkpt>
      <trkpt lat="44.8793" lon="5.68562">
        <ele>484</ele>
        <time>2015-07-06T15:25:59.000Z</time>
      </trkpt>
      <trkpt lat="44.87929" lon="5.68497">
        <ele>484</ele>
        <time>2015-07-06T15:26:05.000Z</time>
      </trkpt>
      <trkpt lat="44.87929" lon="5.68487">
        <ele>484</ele>
        <time>2015-07-06T15:26:06.000Z</time>
      </trkpt>
      <trkpt lat="44.87934" lon="5.68424">
        <ele>484</ele>
        <time>2015-07-06T15:26:12.000Z</time>
      </trkpt>
      <trkpt lat="44.87937" lon="5.68395">
        <ele>484</ele>
        <time>2015-07-06T15:26:15.000Z</time>
      </trkpt>
      <trkpt lat="44.87939" lon="5.68377">
        <ele>484</ele>
        <time>2015-07-06T15:26:17.000Z</time>
      </trkpt>
      <trkpt lat="44.87939" lon="5.68371">
        <ele>484</ele>
        <time>2015-07-06T15:26:18.000Z</time>
      </trkpt>
      <trkpt lat="44.87934" lon="5.68361">
        <ele>484</ele>
        <time>2015-07-06T15:26:20.000Z</time>
      </trkpt>
      <trkpt lat="44.87928" lon="5.68367">
        <ele>484</ele>
        <time>2015-07-06T15:26:22.000Z</time>
      </trkpt>
      <trkpt lat="44.8793" lon="5.68375">
        <ele>484</ele>
        <time>2015-07-06T15:26:24.000Z</time>
      </trkpt>
      <trkpt lat="44.87927" lon="5.68381">
        <ele>484</ele>
        <time>2015-07-06T15:26:27.000Z</time>
      </trkpt>
      <trkpt lat="44.87927" lon="5.68382">
        <ele>484</ele>
        <time>2015-07-06T15:26:29.000Z</time>
      </trkpt>
      <trkpt lat="44.87926" lon="5.68382">
        <ele>484</ele>
        <time>2015-07-06T15:26:30.000Z</time>
      </trkpt>
      <trkpt lat="44.87925" lon="5.68383">
        <ele>484</ele>
        <time>2015-07-06T15:26:32.000Z</time>
      </trkpt>
      <trkpt lat="44.87923" lon="5.68385">
        <ele>484</ele>
        <time>2015-07-06T15:26:34.000Z</time>
      </trkpt>
      <trkpt lat="44.87923" lon="5.68387">
        <ele>484</ele>
        <time>2015-07-06T15:26:35.000Z</time>
      </trkpt>
      <trkpt lat="44.87922" lon="5.68389">
        <ele>484</ele>
        <time>2015-07-06T15:26:37.000Z</time>
      </trkpt>
      <trkpt lat="44.8792" lon="5.68392">
        <ele>484</ele>
        <time>2015-07-06T15:26:40.000Z</time>
      </trkpt>
      <trkpt lat="44.87919" lon="5.68398">
        <ele>484</ele>
        <time>2015-07-06T15:26:41.000Z</time>
      </trkpt>
      <trkpt lat="44.8792" lon="5.68405">
        <ele>484</ele>
        <time>2015-07-06T15:26:42.000Z</time>
      </trkpt>
      <trkpt lat="44.87925" lon="5.68421">
        <ele>484</ele>
        <time>2015-07-06T15:26:45.000Z</time>
      </trkpt>
      <trkpt lat="44.87937" lon="5.68446">
        <ele>484</ele>
        <time>2015-07-06T15:26:49.000Z</time>
      </trkpt>
      <trkpt lat="44.87941" lon="5.68452">
        <ele>484</ele>
        <time>2015-07-06T15:26:50.000Z</time>
      </trkpt>
      <trkpt lat="44.87956" lon="5.68472">
        <ele>484</ele>
        <time>2015-07-06T15:26:53.000Z</time>
      </trkpt>
      <trkpt lat="44.87961" lon="5.6848">
        <ele>484</ele>
        <time>2015-07-06T15:26:54.000Z</time>
      </trkpt>
      <trkpt lat="44.88001" lon="5.68524">
        <ele>484</ele>
        <time>2015-07-06T15:27:01.000Z</time>
      </trkpt>
      <trkpt lat="44.88043" lon="5.68562">
        <ele>484</ele>
        <time>2015-07-06T15:27:08.000Z</time>
      </trkpt>
      <trkpt lat="44.88049" lon="5.68568">
        <ele>484</ele>
        <time>2015-07-06T15:27:09.000Z</time>
      </trkpt>
      <trkpt lat="44.88074" lon="5.68588">
        <ele>484</ele>
        <time>2015-07-06T15:27:13.000Z</time>
      </trkpt>
      <trkpt lat="44.88086" lon="5.686">
        <ele>484</ele>
        <time>2015-07-06T15:27:15.000Z</time>
      </trkpt>
      <trkpt lat="44.88103" lon="5.68613">
        <ele>484</ele>
        <time>2015-07-06T15:27:18.000Z</time>
      </trkpt>
      <trkpt lat="44.88112" lon="5.68622">
        <ele>484</ele>
        <time>2015-07-06T15:27:20.000Z</time>
      </trkpt>
      <trkpt lat="44.88111" lon="5.68636">
        <ele>484</ele>
        <time>2015-07-06T15:27:23.000Z</time>
      </trkpt>
      <trkpt lat="44.88101" lon="5.68634">
        <ele>484</ele>
        <time>2015-07-06T15:27:26.000Z</time>
      </trkpt>
      <trkpt lat="44.88093" lon="5.68633">
        <ele>484</ele>
        <time>2015-07-06T15:27:30.000Z</time>
      </trkpt>
      <trkpt lat="44.88086" lon="5.6863">
        <ele>484</ele>
        <time>2015-07-06T15:27:34.000Z</time>
      </trkpt>
      <trkpt lat="44.88082" lon="5.68631">
        <ele>484</ele>
        <time>2015-07-06T15:27:36.000Z</time>
      </trkpt>
      <trkpt lat="44.8808" lon="5.6863">
        <ele>484</ele>
        <time>2015-07-06T15:27:38.000Z</time>
      </trkpt>
      <trkpt lat="44.88076" lon="5.68629">
        <ele>484</ele>
        <time>2015-07-06T15:27:44.000Z</time>
      </trkpt>
      <trkpt lat="44.88073" lon="5.68632">
        <ele>484</ele>
        <time>2015-07-06T15:27:47.000Z</time>
      </trkpt>
      <trkpt lat="44.88069" lon="5.68631">
        <ele>484</ele>
        <time>2015-07-06T15:27:49.000Z</time>
      </trkpt>
      <trkpt lat="44.88065" lon="5.68629">
        <ele>484</ele>
        <time>2015-07-06T15:27:50.000Z</time>
      </trkpt>
      <trkpt lat="44.88061" lon="5.68624">
        <ele>484</ele>
        <time>2015-07-06T15:27:53.000Z</time>
      </trkpt>
      <trkpt lat="44.88052" lon="5.68624">
        <ele>484</ele>
        <time>2015-07-06T15:27:56.000Z</time>
      </trkpt>
      <trkpt lat="44.88047" lon="5.68625">
        <ele>484</ele>
        <time>2015-07-06T15:27:59.000Z</time>
      </trkpt>
      <trkpt lat="44.8804" lon="5.68627">
        <ele>484</ele>
        <time>2015-07-06T15:28:03.000Z</time>
      </trkpt>
      <trkpt lat="44.8803" lon="5.68626">
        <ele>484</ele>
        <time>2015-07-06T15:28:06.000Z</time>
      </trkpt>
      <trkpt lat="44.88026" lon="5.68618">
        <ele>484</ele>
        <time>2015-07-06T15:28:08.000Z</time>
      </trkpt>
      <trkpt lat="44.88025" lon="5.68616">
        <ele>484</ele>
        <time>2015-07-06T15:28:09.000Z</time>
      </trkpt>
      <trkpt lat="44.88022" lon="5.68616">
        <ele>484</ele>
        <time>2015-07-06T15:28:11.000Z</time>
      </trkpt>
      <trkpt lat="44.88018" lon="5.68617">
        <ele>484</ele>
        <time>2015-07-06T15:28:12.000Z</time>
      </trkpt>
      <trkpt lat="44.88003" lon="5.68606">
        <ele>484</ele>
        <time>2015-07-06T15:28:16.000Z</time>
      </trkpt>
      <trkpt lat="44.87998" lon="5.68584">
        <ele>484</ele>
        <time>2015-07-06T15:28:19.000Z</time>
      </trkpt>
      <trkpt lat="44.87993" lon="5.68568">
        <ele>484</ele>
        <time>2015-07-06T15:28:21.000Z</time>
      </trkpt>
      <trkpt lat="44.87992" lon="5.68558">
        <ele>484</ele>
        <time>2015-07-06T15:28:22.000Z</time>
      </trkpt>
      <trkpt lat="44.87991" lon="5.68549">
        <ele>484</ele>
        <time>2015-07-06T15:28:23.000Z</time>
      </trkpt>
      <trkpt lat="44.87985" lon="5.68517">
        <ele>484</ele>
        <time>2015-07-06T15:28:29.000Z</time>
      </trkpt>
      <trkpt lat="44.87985" lon="5.68519">
        <ele>484</ele>
        <time>2015-07-06T15:28:31.000Z</time>
      </trkpt>
      <trkpt lat="44.87984" lon="5.68523">
        <ele>484</ele>
        <time>2015-07-06T15:28:35.000Z</time>
      </trkpt>
      <trkpt lat="44.87983" lon="5.68524">
        <ele>484</ele>
        <time>2015-07-06T15:28:37.000Z</time>
      </trkpt>
      <trkpt lat="44.87982" lon="5.68524">
        <ele>484</ele>
        <time>2015-07-06T15:28:39.000Z</time>
      </trkpt>
      <trkpt lat="44.87977" lon="5.68517">
        <ele>484</ele>
        <time>2015-07-06T15:28:41.000Z</time>
      </trkpt>
      <trkpt lat="44.87973" lon="5.68511">
        <ele>484</ele>
        <time>2015-07-06T15:28:45.000Z</time>
      </trkpt>
      <trkpt lat="44.87962" lon="5.68506">
        <ele>484</ele>
        <time>2015-07-06T15:28:48.000Z</time>
      </trkpt>
      <trkpt lat="44.87957" lon="5.68487">
        <ele>484</ele>
        <time>2015-07-06T15:28:51.000Z</time>
      </trkpt>
      <trkpt lat="44.87952" lon="5.68461">
        <ele>484</ele>
        <time>2015-07-06T15:28:55.000Z</time>
      </trkpt>
      <trkpt lat="44.8795" lon="5.68426">
        <ele>484</ele>
        <time>2015-07-06T15:28:59.000Z</time>
      </trkpt>
      <trkpt lat="44.87954" lon="5.68361">
        <ele>484</ele>
        <time>2015-07-06T15:29:06.000Z</time>
      </trkpt>
      <trkpt lat="44.87953" lon="5.68352">
        <ele>484</ele>
        <time>2015-07-06T15:29:07.000Z</time>
      </trkpt>
      <trkpt lat="44.87948" lon="5.68342">
        <ele>484</ele>
        <time>2015-07-06T15:29:09.000Z</time>
      </trkpt>
      <trkpt lat="44.87939" lon="5.68337">
        <ele>484</ele>
        <time>2015-07-06T15:29:13.000Z</time>
      </trkpt>
      <trkpt lat="44.87934" lon="5.68337">
        <ele>484</ele>
        <time>2015-07-06T15:29:16.000Z</time>
      </trkpt>
      <trkpt lat="44.87933" lon="5.68337">
        <ele>484</ele>
        <time>2015-07-06T15:29:18.000Z</time>
      </trkpt>
      <trkpt lat="44.87933" lon="5.68339">
        <ele>484</ele>
        <time>2015-07-06T15:29:21.000Z</time>
      </trkpt>
      <trkpt lat="44.87931" lon="5.68349">
        <ele>484</ele>
        <time>2015-07-06T15:29:27.000Z</time>
      </trkpt>
      <trkpt lat="44.87936" lon="5.68359">
        <ele>484</ele>
        <time>2015-07-06T15:29:30.000Z</time>
      </trkpt>
      <trkpt lat="44.87933" lon="5.68369">
        <ele>484</ele>
        <time>2015-07-06T15:29:33.000Z</time>
      </trkpt>
      <trkpt lat="44.87935" lon="5.68383">
        <ele>484</ele>
        <time>2015-07-06T15:29:35.000Z</time>
      </trkpt>
      <trkpt lat="44.87937" lon="5.68387">
        <ele>484</ele>
        <time>2015-07-06T15:29:36.000Z</time>
      </trkpt>
      <trkpt lat="44.87943" lon="5.68405">
        <ele>484</ele>
        <time>2015-07-06T15:29:40.000Z</time>
      </trkpt>
      <trkpt lat="44.87944" lon="5.68412">
        <ele>484</ele>
        <time>2015-07-06T15:29:43.000Z</time>
      </trkpt>
      <trkpt lat="44.87945" lon="5.68436">
        <ele>484</ele>
        <time>2015-07-06T15:29:47.000Z</time>
      </trkpt>
      <trkpt lat="44.87953" lon="5.68457">
        <ele>484</ele>
        <time>2015-07-06T15:29:50.000Z</time>
      </trkpt>
      <trkpt lat="44.87957" lon="5.68464">
        <ele>484</ele>
        <time>2015-07-06T15:29:51.000Z</time>
      </trkpt>
      <trkpt lat="44.87962" lon="5.68471">
        <ele>484</ele>
        <time>2015-07-06T15:29:52.000Z</time>
      </trkpt>
      <trkpt lat="44.87985" lon="5.68499">
        <ele>484</ele>
        <time>2015-07-06T15:29:57.000Z</time>
      </trkpt>
      <trkpt lat="44.88009" lon="5.68528">
        <ele>484</ele>
        <time>2015-07-06T15:30:02.000Z</time>
      </trkpt>
      <trkpt lat="44.88022" lon="5.68549">
        <ele>484</ele>
        <time>2015-07-06T15:30:05.000Z</time>
      </trkpt>
      <trkpt lat="44.88036" lon="5.68566">
        <ele>484</ele>
        <time>2015-07-06T15:30:08.000Z</time>
      </trkpt>
      <trkpt lat="44.8804" lon="5.68574">
        <ele>484</ele>
        <time>2015-07-06T15:30:09.000Z</time>
      </trkpt>
      <trkpt lat="44.88051" lon="5.68595">
        <ele>484</ele>
        <time>2015-07-06T15:30:12.000Z</time>
      </trkpt>
      <trkpt lat="44.88078" lon="5.68627">
        <ele>484</ele>
        <time>2015-07-06T15:30:17.000Z</time>
      </trkpt>
      <trkpt lat="44.88083" lon="5.6863">
        <ele>484</ele>
        <time>2015-07-06T15:30:18.000Z</time>
      </trkpt>
      <trkpt lat="44.88096" lon="5.68641">
        <ele>484</ele>
        <time>2015-07-06T15:30:21.000Z</time>
      </trkpt>
      <trkpt lat="44.88096" lon="5.68648">
        <ele>484</ele>
        <time>2015-07-06T15:30:24.000Z</time>
      </trkpt>
      <trkpt lat="44.88092" lon="5.68648">
        <ele>484</ele>
        <time>2015-07-06T15:30:27.000Z</time>
      </trkpt>
      <trkpt lat="44.88092" lon="5.68649">
        <ele>484</ele>
        <time>2015-07-06T15:30:28.000Z</time>
      </trkpt>
      <trkpt lat="44.88091" lon="5.6865">
        <ele>484</ele>
        <time>2015-07-06T15:30:29.000Z</time>
      </trkpt>
      <trkpt lat="44.88089" lon="5.68652">
        <ele>484</ele>
        <time>2015-07-06T15:30:31.000Z</time>
      </trkpt>
      <trkpt lat="44.88087" lon="5.68655">
        <ele>484</ele>
        <time>2015-07-06T15:30:37.000Z</time>
      </trkpt>
      <trkpt lat="44.88086" lon="5.68655">
        <ele>484</ele>
        <time>2015-07-06T15:30:39.000Z</time>
      </trkpt>
      <trkpt lat="44.88083" lon="5.68656">
        <ele>484</ele>
        <time>2015-07-06T15:30:44.000Z</time>
      </trkpt>
      <trkpt lat="44.88082" lon="5.68656">
        <ele>484</ele>
        <time>2015-07-06T15:30:45.000Z</time>
      </trkpt>
      <trkpt lat="44.88079" lon="5.68657">
        <ele>484</ele>
        <time>2015-07-06T15:30:50.000Z</time>
      </trkpt>
      <trkpt lat="44.88075" lon="5.68662">
        <ele>484</ele>
        <time>2015-07-06T15:30:56.000Z</time>
      </trkpt>
      <trkpt lat="44.88075" lon="5.68663">
        <ele>484</ele>
        <time>2015-07-06T15:30:57.000Z</time>
      </trkpt>
      <trkpt lat="44.88074" lon="5.68664">
        <ele>484</ele>
        <time>2015-07-06T15:31:01.000Z</time>
      </trkpt>
      <trkpt lat="44.88066" lon="5.68666">
        <ele>484</ele>
        <time>2015-07-06T15:31:06.000Z</time>
      </trkpt>
      <trkpt lat="44.88062" lon="5.68664">
        <ele>484</ele>
        <time>2015-07-06T15:31:07.000Z</time>
      </trkpt>
      <trkpt lat="44.88059" lon="5.68659">
        <ele>484</ele>
        <time>2015-07-06T15:31:09.000Z</time>
      </trkpt>
      <trkpt lat="44.88057" lon="5.68658">
        <ele>484</ele>
        <time>2015-07-06T15:31:11.000Z</time>
      </trkpt>
      <trkpt lat="44.88054" lon="5.68661">
        <ele>484</ele>
        <time>2015-07-06T15:31:12.000Z</time>
      </trkpt>
      <trkpt lat="44.88035" lon="5.68655">
        <ele>484</ele>
        <time>2015-07-06T15:31:16.000Z</time>
      </trkpt>
      <trkpt lat="44.88031" lon="5.68641">
        <ele>484</ele>
        <time>2015-07-06T15:31:18.000Z</time>
      </trkpt>
      <trkpt lat="44.8803" lon="5.68632">
        <ele>484</ele>
        <time>2015-07-06T15:31:19.000Z</time>
      </trkpt>
      <trkpt lat="44.88022" lon="5.68601">
        <ele>484</ele>
        <time>2015-07-06T15:31:23.000Z</time>
      </trkpt>
      <trkpt lat="44.88019" lon="5.68581">
        <ele>484</ele>
        <time>2015-07-06T15:31:25.000Z</time>
      </trkpt>
      <trkpt lat="44.88011" lon="5.6852">
        <ele>484</ele>
        <time>2015-07-06T15:31:31.000Z</time>
      </trkpt>
      <trkpt lat="44.88001" lon="5.68453">
        <ele>484</ele>
        <time>2015-07-06T15:31:37.000Z</time>
      </trkpt>
      <trkpt lat="44.88" lon="5.68442">
        <ele>484</ele>
        <time>2015-07-06T15:31:38.000Z</time>
      </trkpt>
      <trkpt lat="44.87996" lon="5.68374">
        <ele>484</ele>
        <time>2015-07-06T15:31:44.000Z</time>
      </trkpt>
      <trkpt lat="44.87996" lon="5.68312">
        <ele>484</ele>
        <time>2015-07-06T15:31:50.000Z</time>
      </trkpt>
      <trkpt lat="44.87996" lon="5.6829">
        <ele>484</ele>
        <time>2015-07-06T15:31:53.000Z</time>
      </trkpt>
      <trkpt lat="44.87994" lon="5.68285">
        <ele>484</ele>
        <time>2015-07-06T15:31:54.000Z</time>
      </trkpt>
      <trkpt lat="44.87988" lon="5.68289">
        <ele>484</ele>
        <time>2015-07-06T15:31:56.000Z</time>
      </trkpt>
      <trkpt lat="44.8799" lon="5.68296">
        <ele>484</ele>
        <time>2015-07-06T15:31:58.000Z</time>
      </trkpt>
      <trkpt lat="44.8799" lon="5.683">
        <ele>484</ele>
        <time>2015-07-06T15:32:02.000Z</time>
      </trkpt>
      <trkpt lat="44.87988" lon="5.68302">
        <ele>484</ele>
        <time>2015-07-06T15:32:04.000Z</time>
      </trkpt>
      <trkpt lat="44.87986" lon="5.68307">
        <ele>484</ele>
        <time>2015-07-06T15:32:05.000Z</time>
      </trkpt>
      <trkpt lat="44.87985" lon="5.68314">
        <ele>484</ele>
        <time>2015-07-06T15:32:06.000Z</time>
      </trkpt>
      <trkpt lat="44.87988" lon="5.68326">
        <ele>484</ele>
        <time>2015-07-06T15:32:09.000Z</time>
      </trkpt>
      <trkpt lat="44.87984" lon="5.68339">
        <ele>484</ele>
        <time>2015-07-06T15:32:12.000Z</time>
      </trkpt>
      <trkpt lat="44.87985" lon="5.68347">
        <ele>484</ele>
        <time>2015-07-06T15:32:13.000Z</time>
      </trkpt>
      <trkpt lat="44.8799" lon="5.68364">
        <ele>484</ele>
        <time>2015-07-06T15:32:16.000Z</time>
      </trkpt>
      <trkpt lat="44.87991" lon="5.6837">
        <ele>484</ele>
        <time>2015-07-06T15:32:17.000Z</time>
      </trkpt>
      <trkpt lat="44.88001" lon="5.68392">
        <ele>484</ele>
        <time>2015-07-06T15:32:20.000Z</time>
      </trkpt>
      <trkpt lat="44.88022" lon="5.68417">
        <ele>484</ele>
        <time>2015-07-06T15:32:24.000Z</time>
      </trkpt>
      <trkpt lat="44.88038" lon="5.68436">
        <ele>484</ele>
        <time>2015-07-06T15:32:27.000Z</time>
      </trkpt>
      <trkpt lat="44.88047" lon="5.68452">
        <ele>484</ele>
        <time>2015-07-06T15:32:29.000Z</time>
      </trkpt>
      <trkpt lat="44.88057" lon="5.68464">
        <ele>484</ele>
        <time>2015-07-06T15:32:31.000Z</time>
      </trkpt>
      <trkpt lat="44.88064" lon="5.68472">
        <ele>484</ele>
        <time>2015-07-06T15:32:32.000Z</time>
      </trkpt>
      <trkpt lat="44.88076" lon="5.68484">
        <ele>484</ele>
        <time>2015-07-06T15:32:34.000Z</time>
      </trkpt>
      <trkpt lat="44.88114" lon="5.68523">
        <ele>484</ele>
        <time>2015-07-06T15:32:40.000Z</time>
      </trkpt>
      <trkpt lat="44.88121" lon="5.68529">
        <ele>484</ele>
        <time>2015-07-06T15:32:41.000Z</time>
      </trkpt>
      <trkpt lat="44.88153" lon="5.68555">
        <ele>484</ele>
        <time>2015-07-06T15:32:46.000Z</time>
      </trkpt>
      <trkpt lat="44.88165" lon="5.68568">
        <ele>484</ele>
        <time>2015-07-06T15:32:49.000Z</time>
      </trkpt>
      <trkpt lat="44.88168" lon="5.6857">
        <ele>484</ele>
        <time>2015-07-06T15:32:50.000Z</time>
      </trkpt>
      <trkpt lat="44.88167" lon="5.68572">
        <ele>484</ele>
        <time>2015-07-06T15:32:52.000Z</time>
      </trkpt>
      <trkpt lat="44.88159" lon="5.68569">
        <ele>484</ele>
        <time>2015-07-06T15:32:55.000Z</time>
      </trkpt>
      <trkpt lat="44.88155" lon="5.68568">
        <ele>484</ele>
        <time>2015-07-06T15:32:59.000Z</time>
      </trkpt>
      <trkpt lat="44.88152" lon="5.68568">
        <ele>484</ele>
        <time>2015-07-06T15:33:03.000Z</time>
      </trkpt>
      <trkpt lat="44.88148" lon="5.68568">
        <ele>484</ele>
        <time>2015-07-06T15:33:05.000Z</time>
      </trkpt>
      <trkpt lat="44.88147" lon="5.68566">
        <ele>484</ele>
        <time>2015-07-06T15:33:06.000Z</time>
      </trkpt>
      <trkpt lat="44.88146" lon="5.68566">
        <ele>484</ele>
        <time>2015-07-06T15:33:10.000Z</time>
      </trkpt>
      <trkpt lat="44.88143" lon="5.68566">
        <ele>484</ele>
        <time>2015-07-06T15:33:15.000Z</time>
      </trkpt>
      <trkpt lat="44.88138" lon="5.68557">
        <ele>484</ele>
        <time>2015-07-06T15:33:22.000Z</time>
      </trkpt>
      <trkpt lat="44.88138" lon="5.68556">
        <ele>484</ele>
        <time>2015-07-06T15:33:24.000Z</time>
      </trkpt>
      <trkpt lat="44.88136" lon="5.68562">
        <ele>484</ele>
        <time>2015-07-06T15:33:40.000Z</time>
      </trkpt>
      <trkpt lat="44.88132" lon="5.68565">
        <ele>484</ele>
        <time>2015-07-06T15:33:49.000Z</time>
      </trkpt>
      <trkpt lat="44.88126" lon="5.68568">
        <ele>484</ele>
        <time>2015-07-06T15:33:57.000Z</time>
      </trkpt>
      <trkpt lat="44.88117" lon="5.68576">
        <ele>484</ele>
        <time>2015-07-06T15:34:13.000Z</time>
      </trkpt>
      <trkpt lat="44.88104" lon="5.68565">
        <ele>484</ele>
        <time>2015-07-06T15:34:29.000Z</time>
      </trkpt>
      <trkpt lat="44.88101" lon="5.68566">
        <ele>484</ele>
        <time>2015-07-06T15:34:32.000Z</time>
      </trkpt>
      <trkpt lat="44.88101" lon="5.68568">
        <ele>484</ele>
        <time>2015-07-06T15:34:36.000Z</time>
      </trkpt>
      <trkpt lat="44.881" lon="5.68573">
        <ele>484</ele>
        <time>2015-07-06T15:34:42.000Z</time>
      </trkpt>
      <trkpt lat="44.88098" lon="5.68575">
        <ele>484</ele>
        <time>2015-07-06T15:34:50.000Z</time>
      </trkpt>
      <trkpt lat="44.88096" lon="5.68576">
        <ele>484</ele>
        <time>2015-07-06T15:34:54.000Z</time>
      </trkpt>
      <trkpt lat="44.88096" lon="5.68582">
        <ele>484</ele>
        <time>2015-07-06T15:35:00.000Z</time>
      </trkpt>
      <trkpt lat="44.88093" lon="5.68585">
        <ele>484</ele>
        <time>2015-07-06T15:35:05.000Z</time>
      </trkpt>
      <trkpt lat="44.88085" lon="5.68586">
        <ele>484</ele>
        <time>2015-07-06T15:35:11.000Z</time>
      </trkpt>
      <trkpt lat="44.88078" lon="5.68573">
        <ele>484</ele>
        <time>2015-07-06T15:35:14.000Z</time>
      </trkpt>
      <trkpt lat="44.8807" lon="5.68567">
        <ele>484</ele>
        <time>2015-07-06T15:35:17.000Z</time>
      </trkpt>
      <trkpt lat="44.88066" lon="5.68555">
        <ele>484</ele>
        <time>2015-07-06T15:35:19.000Z</time>
      </trkpt>
      <trkpt lat="44.88064" lon="5.68547">
        <ele>484</ele>
        <time>2015-07-06T15:35:20.000Z</time>
      </trkpt>
      <trkpt lat="44.88061" lon="5.68514">
        <ele>484</ele>
        <time>2015-07-06T15:35:24.000Z</time>
      </trkpt>
      <trkpt lat="44.8805" lon="5.68466">
        <ele>484</ele>
        <time>2015-07-06T15:35:29.000Z</time>
      </trkpt>
      <trkpt lat="44.88049" lon="5.68456">
        <ele>484</ele>
        <time>2015-07-06T15:35:30.000Z</time>
      </trkpt>
      <trkpt lat="44.88046" lon="5.6841">
        <ele>484</ele>
        <time>2015-07-06T15:35:34.000Z</time>
      </trkpt>
      <trkpt lat="44.88045" lon="5.68355">
        <ele>484</ele>
        <time>2015-07-06T15:35:39.000Z</time>
      </trkpt>
      <trkpt lat="44.88047" lon="5.68323">
        <ele>484</ele>
        <time>2015-07-06T15:35:42.000Z</time>
      </trkpt>
      <trkpt lat="44.88046" lon="5.68303">
        <ele>484</ele>
        <time>2015-07-06T15:35:44.000Z</time>
      </trkpt>
      <trkpt lat="44.88046" lon="5.68283">
        <ele>484</ele>
        <time>2015-07-06T15:35:46.000Z</time>
      </trkpt>
      <trkpt lat="44.88047" lon="5.68263">
        <ele>484</ele>
        <time>2015-07-06T15:35:48.000Z</time>
      </trkpt>
      <trkpt lat="44.88048" lon="5.68254">
        <ele>484</ele>
        <time>2015-07-06T15:35:49.000Z</time>
      </trkpt>
      <trkpt lat="44.88047" lon="5.68239">
        <ele>484</ele>
        <time>2015-07-06T15:35:51.000Z</time>
      </trkpt>
      <trkpt lat="44.88044" lon="5.68229">
        <ele>484</ele>
        <time>2015-07-06T15:35:53.000Z</time>
      </trkpt>
      <trkpt lat="44.88038" lon="5.68234">
        <ele>484</ele>
        <time>2015-07-06T15:35:55.000Z</time>
      </trkpt>
      <trkpt lat="44.8804" lon="5.68247">
        <ele>484</ele>
        <time>2015-07-06T15:35:58.000Z</time>
      </trkpt>
      <trkpt lat="44.8804" lon="5.6825">
        <ele>484</ele>
        <time>2015-07-06T15:35:59.000Z</time>
      </trkpt>
      <trkpt lat="44.88036" lon="5.6827">
        <ele>484</ele>
        <time>2015-07-06T15:36:03.000Z</time>
      </trkpt>
      <trkpt lat="44.88038" lon="5.68276">
        <ele>484</ele>
        <time>2015-07-06T15:36:04.000Z</time>
      </trkpt>
      <trkpt lat="44.88042" lon="5.68285">
        <ele>484</ele>
        <time>2015-07-06T15:36:06.000Z</time>
      </trkpt>
      <trkpt lat="44.88041" lon="5.68306">
        <ele>484</ele>
        <time>2015-07-06T15:36:09.000Z</time>
      </trkpt>
      <trkpt lat="44.88051" lon="5.68334">
        <ele>484</ele>
        <time>2015-07-06T15:36:13.000Z</time>
      </trkpt>
      <trkpt lat="44.88071" lon="5.68369">
        <ele>484</ele>
        <time>2015-07-06T15:36:18.000Z</time>
      </trkpt>
      <trkpt lat="44.88087" lon="5.68397">
        <ele>484</ele>
        <time>2015-07-06T15:36:22.000Z</time>
      </trkpt>
      <trkpt lat="44.88095" lon="5.68411">
        <ele>484</ele>
        <time>2015-07-06T15:36:24.000Z</time>
      </trkpt>
      <trkpt lat="44.88117" lon="5.68453">
        <ele>484</ele>
        <time>2015-07-06T15:36:29.000Z</time>
      </trkpt>
      <trkpt lat="44.88142" lon="5.68492">
        <ele>484</ele>
        <time>2015-07-06T15:36:34.000Z</time>
      </trkpt>
      <trkpt lat="44.88167" lon="5.68525">
        <ele>484</ele>
        <time>2015-07-06T15:36:39.000Z</time>
      </trkpt>
      <trkpt lat="44.88169" lon="5.68532">
        <ele>484</ele>
        <time>2015-07-06T15:36:40.000Z</time>
      </trkpt>
      <trkpt lat="44.88174" lon="5.68555">
        <ele>484</ele>
        <time>2015-07-06T15:36:43.000Z</time>
      </trkpt>
      <trkpt lat="44.88169" lon="5.68563">
        <ele>484</ele>
        <time>2015-07-06T15:36:45.000Z</time>
      </trkpt>
      <trkpt lat="44.88156" lon="5.68561">
        <ele>484</ele>
        <time>2015-07-06T15:36:48.000Z</time>
      </trkpt>
      <trkpt lat="44.88152" lon="5.6856">
        <ele>484</ele>
        <time>2015-07-06T15:36:49.000Z</time>
      </trkpt>
      <trkpt lat="44.88146" lon="5.6856">
        <ele>484</ele>
        <time>2015-07-06T15:36:51.000Z</time>
      </trkpt>
      <trkpt lat="44.88134" lon="5.68554">
        <ele>484</ele>
        <time>2015-07-06T15:36:54.000Z</time>
      </trkpt>
      <trkpt lat="44.88127" lon="5.68529">
        <ele>484</ele>
        <time>2015-07-06T15:36:57.000Z</time>
      </trkpt>
      <trkpt lat="44.88126" lon="5.6852">
        <ele>484</ele>
        <time>2015-07-06T15:36:58.000Z</time>
      </trkpt>
      <trkpt lat="44.88122" lon="5.68472">
        <ele>484</ele>
        <time>2015-07-06T15:37:03.000Z</time>
      </trkpt>
      <trkpt lat="44.88118" lon="5.68409">
        <ele>484</ele>
        <time>2015-07-06T15:37:09.000Z</time>
      </trkpt>
      <trkpt lat="44.88116" lon="5.68399">
        <ele>484</ele>
        <time>2015-07-06T15:37:10.000Z</time>
      </trkpt>
      <trkpt lat="44.88111" lon="5.68356">
        <ele>484</ele>
        <time>2015-07-06T15:37:14.000Z</time>
      </trkpt>
      <trkpt lat="44.88105" lon="5.68302">
        <ele>484</ele>
        <time>2015-07-06T15:37:19.000Z</time>
      </trkpt>
      <trkpt lat="44.88106" lon="5.68257">
        <ele>484</ele>
        <time>2015-07-06T15:37:23.000Z</time>
      </trkpt>
      <trkpt lat="44.88107" lon="5.68237">
        <ele>484</ele>
        <time>2015-07-06T15:37:25.000Z</time>
      </trkpt>
      <trkpt lat="44.8811" lon="5.68208">
        <ele>484</ele>
        <time>2015-07-06T15:37:28.000Z</time>
      </trkpt>
      <trkpt lat="44.88111" lon="5.68193">
        <ele>484</ele>
        <time>2015-07-06T15:37:30.000Z</time>
      </trkpt>
      <trkpt lat="44.88111" lon="5.68187">
        <ele>484</ele>
        <time>2015-07-06T15:37:31.000Z</time>
      </trkpt>
      <trkpt lat="44.88105" lon="5.68183">
        <ele>484</ele>
        <time>2015-07-06T15:37:33.000Z</time>
      </trkpt>
      <trkpt lat="44.88102" lon="5.68196">
        <ele>484</ele>
        <time>2015-07-06T15:37:35.000Z</time>
      </trkpt>
      <trkpt lat="44.88104" lon="5.68213">
        <ele>484</ele>
        <time>2015-07-06T15:37:39.000Z</time>
      </trkpt>
      <trkpt lat="44.88102" lon="5.68235">
        <ele>484</ele>
        <time>2015-07-06T15:37:43.000Z</time>
      </trkpt>
      <trkpt lat="44.8811" lon="5.68255">
        <ele>484</ele>
        <time>2015-07-06T15:37:46.000Z</time>
      </trkpt>
      <trkpt lat="44.88125" lon="5.68285">
        <ele>484</ele>
        <time>2015-07-06T15:37:50.000Z</time>
      </trkpt>
      <trkpt lat="44.8813" lon="5.68292">
        <ele>484</ele>
        <time>2015-07-06T15:37:51.000Z</time>
      </trkpt>
      <trkpt lat="44.88134" lon="5.683">
        <ele>484</ele>
        <time>2015-07-06T15:37:52.000Z</time>
      </trkpt>
      <trkpt lat="44.88146" lon="5.68326">
        <ele>484</ele>
        <time>2015-07-06T15:37:55.000Z</time>
      </trkpt>
      <trkpt lat="44.88162" lon="5.68359">
        <ele>484</ele>
        <time>2015-07-06T15:37:59.000Z</time>
      </trkpt>
      <trkpt lat="44.88171" lon="5.68373">
        <ele>484</ele>
        <time>2015-07-06T15:38:01.000Z</time>
      </trkpt>
      <trkpt lat="44.88201" lon="5.68425">
        <ele>484</ele>
        <time>2015-07-06T15:38:08.000Z</time>
      </trkpt>
      <trkpt lat="44.882" lon="5.68446">
        <ele>484</ele>
        <time>2015-07-06T15:38:12.000Z</time>
      </trkpt>
      <trkpt lat="44.88191" lon="5.68447">
        <ele>484</ele>
        <time>2015-07-06T15:38:15.000Z</time>
      </trkpt>
      <trkpt lat="44.88189" lon="5.68448">
        <ele>484</ele>
        <time>2015-07-06T15:38:16.000Z</time>
      </trkpt>
      <trkpt lat="44.88184" lon="5.68451">
        <ele>484</ele>
        <time>2015-07-06T15:38:18.000Z</time>
      </trkpt>
      <trkpt lat="44.88182" lon="5.68451">
        <ele>484</ele>
        <time>2015-07-06T15:38:19.000Z</time>
      </trkpt>
      <trkpt lat="44.88174" lon="5.68445">
        <ele>484</ele>
        <time>2015-07-06T15:38:22.000Z</time>
      </trkpt>
      <trkpt lat="44.88165" lon="5.68425">
        <ele>484</ele>
        <time>2015-07-06T15:38:26.000Z</time>
      </trkpt>
      <trkpt lat="44.88162" lon="5.68404">
        <ele>484</ele>
        <time>2015-07-06T15:38:29.000Z</time>
      </trkpt>
      <trkpt lat="44.88162" lon="5.68388">
        <ele>484</ele>
        <time>2015-07-06T15:38:31.000Z</time>
      </trkpt>
      <trkpt lat="44.8816" lon="5.68362">
        <ele>484</ele>
        <time>2015-07-06T15:38:34.000Z</time>
      </trkpt>
      <trkpt lat="44.88158" lon="5.68303">
        <ele>484</ele>
        <time>2015-07-06T15:38:40.000Z</time>
      </trkpt>
      <trkpt lat="44.88158" lon="5.68283">
        <ele>484</ele>
        <time>2015-07-06T15:38:42.000Z</time>
      </trkpt>
      <trkpt lat="44.88156" lon="5.68263">
        <ele>484</ele>
        <time>2015-07-06T15:38:44.000Z</time>
      </trkpt>
      <trkpt lat="44.88156" lon="5.68233">
        <ele>484</ele>
        <time>2015-07-06T15:38:47.000Z</time>
      </trkpt>
      <trkpt lat="44.88155" lon="5.68214">
        <ele>484</ele>
        <time>2015-07-06T15:38:49.000Z</time>
      </trkpt>
      <trkpt lat="44.88155" lon="5.68204">
        <ele>484</ele>
        <time>2015-07-06T15:38:50.000Z</time>
      </trkpt>
      <trkpt lat="44.88157" lon="5.6815">
        <ele>484</ele>
        <time>2015-07-06T15:38:56.000Z</time>
      </trkpt>
      <trkpt lat="44.88157" lon="5.68143">
        <ele>484</ele>
        <time>2015-07-06T15:38:57.000Z</time>
      </trkpt>
      <trkpt lat="44.88152" lon="5.68135">
        <ele>484</ele>
        <time>2015-07-06T15:38:59.000Z</time>
      </trkpt>
      <trkpt lat="44.88146" lon="5.68147">
        <ele>484</ele>
        <time>2015-07-06T15:39:01.000Z</time>
      </trkpt>
      <trkpt lat="44.8815" lon="5.68163">
        <ele>484</ele>
        <time>2015-07-06T15:39:04.000Z</time>
      </trkpt>
      <trkpt lat="44.88148" lon="5.68164">
        <ele>484</ele>
        <time>2015-07-06T15:39:07.000Z</time>
      </trkpt>
      <trkpt lat="44.88148" lon="5.68166">
        <ele>484</ele>
        <time>2015-07-06T15:39:14.000Z</time>
      </trkpt>
      <trkpt lat="44.88147" lon="5.68169">
        <ele>484</ele>
        <time>2015-07-06T15:39:22.000Z</time>
      </trkpt>
      <trkpt lat="44.88144" lon="5.68171">
        <ele>484</ele>
        <time>2015-07-06T15:39:27.000Z</time>
      </trkpt>
      <trkpt lat="44.88144" lon="5.68172">
        <ele>484</ele>
        <time>2015-07-06T15:39:28.000Z</time>
      </trkpt>
      <trkpt lat="44.88142" lon="5.68183">
        <ele>484</ele>
        <time>2015-07-06T15:39:31.000Z</time>
      </trkpt>
      <trkpt lat="44.88143" lon="5.6819">
        <ele>484</ele>
        <time>2015-07-06T15:39:32.000Z</time>
      </trkpt>
      <trkpt lat="44.88145" lon="5.682">
        <ele>484</ele>
        <time>2015-07-06T15:39:35.000Z</time>
      </trkpt>
      <trkpt lat="44.88147" lon="5.68227">
        <ele>484</ele>
        <time>2015-07-06T15:39:39.000Z</time>
      </trkpt>
      <trkpt lat="44.8815" lon="5.68235">
        <ele>484</ele>
        <time>2015-07-06T15:39:40.000Z</time>
      </trkpt>
      <trkpt lat="44.88158" lon="5.68251">
        <ele>484</ele>
        <time>2015-07-06T15:39:42.000Z</time>
      </trkpt>
      <trkpt lat="44.88167" lon="5.68268">
        <ele>484</ele>
        <time>2015-07-06T15:39:44.000Z</time>
      </trkpt>
      <trkpt lat="44.88195" lon="5.68319">
        <ele>484</ele>
        <time>2015-07-06T15:39:50.000Z</time>
      </trkpt>
      <trkpt lat="44.882" lon="5.68327">
        <ele>484</ele>
        <time>2015-07-06T15:39:51.000Z</time>
      </trkpt>
      <trkpt lat="44.88234" lon="5.6837">
        <ele>484</ele>
        <time>2015-07-06T15:39:57.000Z</time>
      </trkpt>
      <trkpt lat="44.88266" lon="5.68403">
        <ele>484</ele>
        <time>2015-07-06T15:40:03.000Z</time>
      </trkpt>
      <trkpt lat="44.8827" lon="5.6841">
        <ele>484</ele>
        <time>2015-07-06T15:40:04.000Z</time>
      </trkpt>
      <trkpt lat="44.88277" lon="5.68422">
        <ele>484</ele>
        <time>2015-07-06T15:40:06.000Z</time>
      </trkpt>
      <trkpt lat="44.88277" lon="5.68428">
        <ele>484</ele>
        <time>2015-07-06T15:40:07.000Z</time>
      </trkpt>
      <trkpt lat="44.88268" lon="5.68436">
        <ele>484</ele>
        <time>2015-07-06T15:40:10.000Z</time>
      </trkpt>
      <trkpt lat="44.88265" lon="5.68437">
        <ele>484</ele>
        <time>2015-07-06T15:40:11.000Z</time>
      </trkpt>
      <trkpt lat="44.88264" lon="5.6844">
        <ele>484</ele>
        <time>2015-07-06T15:40:12.000Z</time>
      </trkpt>
      <trkpt lat="44.8826" lon="5.68446">
        <ele>484</ele>
        <time>2015-07-06T15:40:14.000Z</time>
      </trkpt>
      <trkpt lat="44.88258" lon="5.68449">
        <ele>484</ele>
        <time>2015-07-06T15:40:16.000Z</time>
      </trkpt>
      <trkpt lat="44.88259" lon="5.68449">
        <ele>484</ele>
        <time>2015-07-06T15:40:18.000Z</time>
      </trkpt>
      <trkpt lat="44.88261" lon="5.68451">
        <ele>484</ele>
        <time>2015-07-06T15:40:24.000Z</time>
      </trkpt>
      <trkpt lat="44.88261" lon="5.68453">
        <ele>484</ele>
        <time>2015-07-06T15:40:30.000Z</time>
      </trkpt>
      <trkpt lat="44.88262" lon="5.68457">
        <ele>484</ele>
        <time>2015-07-06T15:40:36.000Z</time>
      </trkpt>
      <trkpt lat="44.8826" lon="5.68462">
        <ele>484</ele>
        <time>2015-07-06T15:40:42.000Z</time>
      </trkpt>
      <trkpt lat="44.88256" lon="5.68461">
        <ele>484</ele>
        <time>2015-07-06T15:40:45.000Z</time>
      </trkpt>
      <trkpt lat="44.88255" lon="5.68461">
        <ele>484</ele>
        <time>2015-07-06T15:40:49.000Z</time>
      </trkpt>
      <trkpt lat="44.88252" lon="5.68465">
        <ele>484</ele>
        <time>2015-07-06T15:40:55.000Z</time>
      </trkpt>
      <trkpt lat="44.88248" lon="5.68464">
        <ele>484</ele>
        <time>2015-07-06T15:41:00.000Z</time>
      </trkpt>
      <trkpt lat="44.88241" lon="5.68452">
        <ele>484</ele>
        <time>2015-07-06T15:41:03.000Z</time>
      </trkpt>
      <trkpt lat="44.88237" lon="5.68451">
        <ele>484</ele>
        <time>2015-07-06T15:41:06.000Z</time>
      </trkpt>
      <trkpt lat="44.88221" lon="5.68447">
        <ele>484</ele>
        <time>2015-07-06T15:41:09.000Z</time>
      </trkpt>
      <trkpt lat="44.88218" lon="5.6844">
        <ele>484</ele>
        <time>2015-07-06T15:41:10.000Z</time>
      </trkpt>
      <trkpt lat="44.88212" lon="5.68429">
        <ele>484</ele>
        <time>2015-07-06T15:41:12.000Z</time>
      </trkpt>
      <trkpt lat="44.88203" lon="5.68403">
        <ele>484</ele>
        <time>2015-07-06T15:41:15.000Z</time>
      </trkpt>
      <trkpt lat="44.88201" lon="5.68393">
        <ele>484</ele>
        <time>2015-07-06T15:41:16.000Z</time>
      </trkpt>
      <trkpt lat="44.88198" lon="5.68347">
        <ele>484</ele>
        <time>2015-07-06T15:41:20.000Z</time>
      </trkpt>
      <trkpt lat="44.88197" lon="5.68291">
        <ele>484</ele>
        <time>2015-07-06T15:41:25.000Z</time>
      </trkpt>
      <trkpt lat="44.88194" lon="5.6827">
        <ele>484</ele>
        <time>2015-07-06T15:41:27.000Z</time>
      </trkpt>
      <trkpt lat="44.8819" lon="5.68238">
        <ele>484</ele>
        <time>2015-07-06T15:41:30.000Z</time>
      </trkpt>
      <trkpt lat="44.88186" lon="5.68208">
        <ele>484</ele>
        <time>2015-07-06T15:41:33.000Z</time>
      </trkpt>
      <trkpt lat="44.88183" lon="5.68198">
        <ele>484</ele>
        <time>2015-07-06T15:41:34.000Z</time>
      </trkpt>
      <trkpt lat="44.88183" lon="5.68188">
        <ele>484</ele>
        <time>2015-07-06T15:41:35.000Z</time>
      </trkpt>
      <trkpt lat="44.88181" lon="5.68155">
        <ele>484</ele>
        <time>2015-07-06T15:41:38.000Z</time>
      </trkpt>
      <trkpt lat="44.88182" lon="5.68106">
        <ele>484</ele>
        <time>2015-07-06T15:41:43.000Z</time>
      </trkpt>
      <trkpt lat="44.8818" lon="5.68091">
        <ele>484</ele>
        <time>2015-07-06T15:41:45.000Z</time>
      </trkpt>
      <trkpt lat="44.88177" lon="5.68087">
        <ele>484</ele>
        <time>2015-07-06T15:41:46.000Z</time>
      </trkpt>
      <trkpt lat="44.88169" lon="5.68094">
        <ele>484</ele>
        <time>2015-07-06T15:41:48.000Z</time>
      </trkpt>
      <trkpt lat="44.8817" lon="5.6811">
        <ele>484</ele>
        <time>2015-07-06T15:41:51.000Z</time>
      </trkpt>
      <trkpt lat="44.88166" lon="5.68124">
        <ele>484</ele>
        <time>2015-07-06T15:41:55.000Z</time>
      </trkpt>
      <trkpt lat="44.88164" lon="5.68144">
        <ele>484</ele>
        <time>2015-07-06T15:41:58.000Z</time>
      </trkpt>
      <trkpt lat="44.88169" lon="5.68158">
        <ele>484</ele>
        <time>2015-07-06T15:42:00.000Z</time>
      </trkpt>
      <trkpt lat="44.88173" lon="5.68175">
        <ele>484</ele>
        <time>2015-07-06T15:42:02.000Z</time>
      </trkpt>
      <trkpt lat="44.88177" lon="5.68184">
        <ele>484</ele>
        <time>2015-07-06T15:42:03.000Z</time>
      </trkpt>
      <trkpt lat="44.88191" lon="5.68215">
        <ele>484</ele>
        <time>2015-07-06T15:42:07.000Z</time>
      </trkpt>
      <trkpt lat="44.88196" lon="5.68221">
        <ele>484</ele>
        <time>2015-07-06T15:42:08.000Z</time>
      </trkpt>
      <trkpt lat="44.88214" lon="5.68249">
        <ele>484</ele>
        <time>2015-07-06T15:42:12.000Z</time>
      </trkpt>
      <trkpt lat="44.88245" lon="5.68304">
        <ele>484</ele>
        <time>2015-07-06T15:42:19.000Z</time>
      </trkpt>
      <trkpt lat="44.8825" lon="5.68312">
        <ele>484</ele>
        <time>2015-07-06T15:42:20.000Z</time>
      </trkpt>
      <trkpt lat="44.88252" lon="5.68318">
        <ele>484</ele>
        <time>2015-07-06T15:42:21.000Z</time>
      </trkpt>
      <trkpt lat="44.88255" lon="5.68333">
        <ele>484</ele>
        <time>2015-07-06T15:42:23.000Z</time>
      </trkpt>
      <trkpt lat="44.88249" lon="5.68341">
        <ele>484</ele>
        <time>2015-07-06T15:42:25.000Z</time>
      </trkpt>
      <trkpt lat="44.88239" lon="5.68335">
        <ele>484</ele>
        <time>2015-07-06T15:42:27.000Z</time>
      </trkpt>
      <trkpt lat="44.88234" lon="5.68328">
        <ele>484</ele>
        <time>2015-07-06T15:42:29.000Z</time>
      </trkpt>
      <trkpt lat="44.88233" lon="5.68326">
        <ele>484</ele>
        <time>2015-07-06T15:42:30.000Z</time>
      </trkpt>
      <trkpt lat="44.88228" lon="5.68326">
        <ele>484</ele>
        <time>2015-07-06T15:42:31.000Z</time>
      </trkpt>
      <trkpt lat="44.88219" lon="5.68322">
        <ele>484</ele>
        <time>2015-07-06T15:42:33.000Z</time>
      </trkpt>
      <trkpt lat="44.88213" lon="5.68301">
        <ele>484</ele>
        <time>2015-07-06T15:42:36.000Z</time>
      </trkpt>
      <trkpt lat="44.88212" lon="5.68273">
        <ele>484</ele>
        <time>2015-07-06T15:42:39.000Z</time>
      </trkpt>
      <trkpt lat="44.88211" lon="5.68263">
        <ele>484</ele>
        <time>2015-07-06T15:42:40.000Z</time>
      </trkpt>
      <trkpt lat="44.88211" lon="5.68211">
        <ele>484</ele>
        <time>2015-07-06T15:42:45.000Z</time>
      </trkpt>
      <trkpt lat="44.88218" lon="5.68141">
        <ele>484</ele>
        <time>2015-07-06T15:42:52.000Z</time>
      </trkpt>
      <trkpt lat="44.8823" lon="5.68077">
        <ele>484</ele>
        <time>2015-07-06T15:42:59.000Z</time>
      </trkpt>
      <trkpt lat="44.88231" lon="5.68063">
        <ele>484</ele>
        <time>2015-07-06T15:43:01.000Z</time>
      </trkpt>
      <trkpt lat="44.88228" lon="5.68059">
        <ele>484</ele>
        <time>2015-07-06T15:43:02.000Z</time>
      </trkpt>
      <trkpt lat="44.88221" lon="5.68067">
        <ele>484</ele>
        <time>2015-07-06T15:43:04.000Z</time>
      </trkpt>
      <trkpt lat="44.88225" lon="5.68076">
        <ele>484</ele>
        <time>2015-07-06T15:43:06.000Z</time>
      </trkpt>
      <trkpt lat="44.88222" lon="5.68089">
        <ele>484</ele>
        <time>2015-07-06T15:43:10.000Z</time>
      </trkpt>
      <trkpt lat="44.88223" lon="5.68102">
        <ele>484</ele>
        <time>2015-07-06T15:43:12.000Z</time>
      </trkpt>
      <trkpt lat="44.88226" lon="5.68108">
        <ele>484</ele>
        <time>2015-07-06T15:43:13.000Z</time>
      </trkpt>
      <trkpt lat="44.88231" lon="5.68136">
        <ele>484</ele>
        <time>2015-07-06T15:43:17.000Z</time>
      </trkpt>
      <trkpt lat="44.88239" lon="5.68159">
        <ele>484</ele>
        <time>2015-07-06T15:43:20.000Z</time>
      </trkpt>
      <trkpt lat="44.88246" lon="5.68176">
        <ele>484</ele>
        <time>2015-07-06T15:43:22.000Z</time>
      </trkpt>
      <trkpt lat="44.8825" lon="5.68183">
        <ele>484</ele>
        <time>2015-07-06T15:43:23.000Z</time>
      </trkpt>
      <trkpt lat="44.8827" lon="5.68225">
        <ele>484</ele>
        <time>2015-07-06T15:43:28.000Z</time>
      </trkpt>
      <trkpt lat="44.88295" lon="5.68271">
        <ele>484</ele>
        <time>2015-07-06T15:43:34.000Z</time>
      </trkpt>
      <trkpt lat="44.88311" lon="5.68296">
        <ele>484</ele>
        <time>2015-07-06T15:43:38.000Z</time>
      </trkpt>
      <trkpt lat="44.88313" lon="5.68303">
        <ele>484</ele>
        <time>2015-07-06T15:43:39.000Z</time>
      </trkpt>
      <trkpt lat="44.8831" lon="5.68319">
        <ele>484</ele>
        <time>2015-07-06T15:43:42.000Z</time>
      </trkpt>
      <trkpt lat="44.88301" lon="5.68321">
        <ele>484</ele>
        <time>2015-07-06T15:43:45.000Z</time>
      </trkpt>
      <trkpt lat="44.88301" lon="5.68321">
        <ele>484</ele>
        <time>2015-07-06T15:43:46.000Z</time>
      </trkpt>
      <trkpt lat="44.883" lon="5.68321">
        <ele>484</ele>
        <time>2015-07-06T15:43:47.000Z</time>
      </trkpt>
      <trkpt lat="44.88296" lon="5.68323">
        <ele>484</ele>
        <time>2015-07-06T15:43:48.000Z</time>
      </trkpt>
      <trkpt lat="44.88285" lon="5.6832">
        <ele>484</ele>
        <time>2015-07-06T15:43:52.000Z</time>
      </trkpt>
      <trkpt lat="44.88281" lon="5.68317">
        <ele>484</ele>
        <time>2015-07-06T15:43:55.000Z</time>
      </trkpt>
      <trkpt lat="44.88277" lon="5.68317">
        <ele>484</ele>
        <time>2015-07-06T15:43:56.000Z</time>
      </trkpt>
      <trkpt lat="44.88267" lon="5.68316">
        <ele>484</ele>
        <time>2015-07-06T15:44:00.000Z</time>
      </trkpt>
      <trkpt lat="44.88254" lon="5.68314">
        <ele>484</ele>
        <time>2015-07-06T15:44:05.000Z</time>
      </trkpt>
      <trkpt lat="44.88251" lon="5.68309">
        <ele>484</ele>
        <time>2015-07-06T15:44:06.000Z</time>
      </trkpt>
      <trkpt lat="44.88247" lon="5.68296">
        <ele>484</ele>
        <time>2015-07-06T15:44:08.000Z</time>
      </trkpt>
      <trkpt lat="44.8824" lon="5.6828">
        <ele>484</ele>
        <time>2015-07-06T15:44:11.000Z</time>
      </trkpt>
      <trkpt lat="44.88235" lon="5.68274">
        <ele>484</ele>
        <time>2015-07-06T15:44:12.000Z</time>
      </trkpt>
      <trkpt lat="44.8823" lon="5.68247">
        <ele>484</ele>
        <time>2015-07-06T15:44:15.000Z</time>
      </trkpt>
      <trkpt lat="44.88231" lon="5.68227">
        <ele>484</ele>
        <time>2015-07-06T15:44:17.000Z</time>
      </trkpt>
      <trkpt lat="44.88232" lon="5.68207">
        <ele>484</ele>
        <time>2015-07-06T15:44:19.000Z</time>
      </trkpt>
      <trkpt lat="44.88231" lon="5.68197">
        <ele>484</ele>
        <time>2015-07-06T15:44:20.000Z</time>
      </trkpt>
      <trkpt lat="44.88231" lon="5.68177">
        <ele>484</ele>
        <time>2015-07-06T15:44:22.000Z</time>
      </trkpt>
      <trkpt lat="44.8823" lon="5.68167">
        <ele>484</ele>
        <time>2015-07-06T15:44:23.000Z</time>
      </trkpt>
      <trkpt lat="44.88229" lon="5.68117">
        <ele>484</ele>
        <time>2015-07-06T15:44:28.000Z</time>
      </trkpt>
      <trkpt lat="44.88232" lon="5.68098">
        <ele>484</ele>
        <time>2015-07-06T15:44:30.000Z</time>
      </trkpt>
      <trkpt lat="44.88233" lon="5.68088">
        <ele>484</ele>
        <time>2015-07-06T15:44:31.000Z</time>
      </trkpt>
      <trkpt lat="44.88234" lon="5.68071">
        <ele>484</ele>
        <time>2015-07-06T15:44:33.000Z</time>
      </trkpt>
      <trkpt lat="44.88238" lon="5.68052">
        <ele>484</ele>
        <time>2015-07-06T15:44:35.000Z</time>
      </trkpt>
      <trkpt lat="44.88236" lon="5.68037">
        <ele>484</ele>
        <time>2015-07-06T15:44:37.000Z</time>
      </trkpt>
      <trkpt lat="44.88233" lon="5.68024">
        <ele>484</ele>
        <time>2015-07-06T15:44:39.000Z</time>
      </trkpt>
      <trkpt lat="44.8823" lon="5.6802">
        <ele>484</ele>
        <time>2015-07-06T15:44:40.000Z</time>
      </trkpt>
      <trkpt lat="44.88226" lon="5.68021">
        <ele>484</ele>
        <time>2015-07-06T15:44:41.000Z</time>
      </trkpt>
      <trkpt lat="44.88216" lon="5.68029">
        <ele>484</ele>
        <time>2015-07-06T15:44:44.000Z</time>
      </trkpt>
      <trkpt lat="44.88216" lon="5.68029">
        <ele>484</ele>
        <time>2015-07-06T15:44:45.000Z</time>
      </trkpt>
      <trkpt lat="44.88218" lon="5.68031">
        <ele>484</ele>
        <time>2015-07-06T15:44:47.000Z</time>
      </trkpt>
      <trkpt lat="44.88218" lon="5.68034">
        <ele>484</ele>
        <time>2015-07-06T15:44:50.000Z</time>
      </trkpt>
      <trkpt lat="44.88217" lon="5.68036">
        <ele>484</ele>
        <time>2015-07-06T15:44:54.000Z</time>
      </trkpt>
      <trkpt lat="44.88215" lon="5.68049">
        <ele>484</ele>
        <time>2015-07-06T15:44:58.000Z</time>
      </trkpt>
      <trkpt lat="44.88219" lon="5.68059">
        <ele>484</ele>
        <time>2015-07-06T15:45:01.000Z</time>
      </trkpt>
      <trkpt lat="44.88212" lon="5.68073">
        <ele>484</ele>
        <time>2015-07-06T15:45:04.000Z</time>
      </trkpt>
      <trkpt lat="44.88219" lon="5.68096">
        <ele>484</ele>
        <time>2015-07-06T15:45:07.000Z</time>
      </trkpt>
      <trkpt lat="44.88221" lon="5.68104">
        <ele>484</ele>
        <time>2015-07-06T15:45:08.000Z</time>
      </trkpt>
      <trkpt lat="44.88235" lon="5.68145">
        <ele>484</ele>
        <time>2015-07-06T15:45:13.000Z</time>
      </trkpt>
      <trkpt lat="44.88245" lon="5.68177">
        <ele>484</ele>
        <time>2015-07-06T15:45:17.000Z</time>
      </trkpt>
      <trkpt lat="44.88247" lon="5.68185">
        <ele>484</ele>
        <time>2015-07-06T15:45:18.000Z</time>
      </trkpt>
      <trkpt lat="44.88272" lon="5.68247">
        <ele>484</ele>
        <time>2015-07-06T15:45:25.000Z</time>
      </trkpt>
      <trkpt lat="44.88302" lon="5.68306">
        <ele>484</ele>
        <time>2015-07-06T15:45:32.000Z</time>
      </trkpt>
      <trkpt lat="44.88307" lon="5.68315">
        <ele>484</ele>
        <time>2015-07-06T15:45:33.000Z</time>
      </trkpt>
      <trkpt lat="44.88315" lon="5.6833">
        <ele>484</ele>
        <time>2015-07-06T15:45:35.000Z</time>
      </trkpt>
      <trkpt lat="44.88322" lon="5.68345">
        <ele>484</ele>
        <time>2015-07-06T15:45:37.000Z</time>
      </trkpt>
      <trkpt lat="44.88322" lon="5.68353">
        <ele>484</ele>
        <time>2015-07-06T15:45:38.000Z</time>
      </trkpt>
      <trkpt lat="44.88317" lon="5.68365">
        <ele>484</ele>
        <time>2015-07-06T15:45:40.000Z</time>
      </trkpt>
      <trkpt lat="44.88312" lon="5.68369">
        <ele>484</ele>
        <time>2015-07-06T15:45:43.000Z</time>
      </trkpt>
      <trkpt lat="44.88304" lon="5.68374">
        <ele>484</ele>
        <time>2015-07-06T15:45:46.000Z</time>
      </trkpt>
      <trkpt lat="44.883" lon="5.68375">
        <ele>484</ele>
        <time>2015-07-06T15:45:48.000Z</time>
      </trkpt>
      <trkpt lat="44.88297" lon="5.68375">
        <ele>484</ele>
        <time>2015-07-06T15:45:49.000Z</time>
      </trkpt>
      <trkpt lat="44.88293" lon="5.6837">
        <ele>484</ele>
        <time>2015-07-06T15:45:51.000Z</time>
      </trkpt>
      <trkpt lat="44.88281" lon="5.6837">
        <ele>484</ele>
        <time>2015-07-06T15:45:55.000Z</time>
      </trkpt>
      <trkpt lat="44.88272" lon="5.68364">
        <ele>484</ele>
        <time>2015-07-06T15:45:57.000Z</time>
      </trkpt>
      <trkpt lat="44.88269" lon="5.68358">
        <ele>484</ele>
        <time>2015-07-06T15:45:58.000Z</time>
      </trkpt>
      <trkpt lat="44.88263" lon="5.68332">
        <ele>484</ele>
        <time>2015-07-06T15:46:01.000Z</time>
      </trkpt>
      <trkpt lat="44.88261" lon="5.68311">
        <ele>484</ele>
        <time>2015-07-06T15:46:03.000Z</time>
      </trkpt>
      <trkpt lat="44.8826" lon="5.68279">
        <ele>484</ele>
        <time>2015-07-06T15:46:06.000Z</time>
      </trkpt>
      <trkpt lat="44.88258" lon="5.68257">
        <ele>484</ele>
        <time>2015-07-06T15:46:08.000Z</time>
      </trkpt>
      <trkpt lat="44.88253" lon="5.68226">
        <ele>484</ele>
        <time>2015-07-06T15:46:11.000Z</time>
      </trkpt>
      <trkpt lat="44.8825" lon="5.68163">
        <ele>484</ele>
        <time>2015-07-06T15:46:17.000Z</time>
      </trkpt>
      <trkpt lat="44.88252" lon="5.68113">
        <ele>484</ele>
        <time>2015-07-06T15:46:22.000Z</time>
      </trkpt>
      <trkpt lat="44.88259" lon="5.68057">
        <ele>484</ele>
        <time>2015-07-06T15:46:28.000Z</time>
      </trkpt>
      <trkpt lat="44.88261" lon="5.68049">
        <ele>484</ele>
        <time>2015-07-06T15:46:29.000Z</time>
      </trkpt>
      <trkpt lat="44.88271" lon="5.6802">
        <ele>484</ele>
        <time>2015-07-06T15:46:33.000Z</time>
      </trkpt>
      <trkpt lat="44.88273" lon="5.68008">
        <ele>484</ele>
        <time>2015-07-06T15:46:35.000Z</time>
      </trkpt>
      <trkpt lat="44.88273" lon="5.67994">
        <ele>484</ele>
        <time>2015-07-06T15:46:37.000Z</time>
      </trkpt>
      <trkpt lat="44.88271" lon="5.67987">
        <ele>484</ele>
        <time>2015-07-06T15:46:39.000Z</time>
      </trkpt>
      <trkpt lat="44.88268" lon="5.67987">
        <ele>484</ele>
        <time>2015-07-06T15:46:40.000Z</time>
      </trkpt>
      <trkpt lat="44.88264" lon="5.67999">
        <ele>484</ele>
        <time>2015-07-06T15:46:42.000Z</time>
      </trkpt>
      <trkpt lat="44.88264" lon="5.68007">
        <ele>484</ele>
        <time>2015-07-06T15:46:45.000Z</time>
      </trkpt>
      <trkpt lat="44.88258" lon="5.68022">
        <ele>484</ele>
        <time>2015-07-06T15:46:49.000Z</time>
      </trkpt>
      <trkpt lat="44.88262" lon="5.68038">
        <ele>484</ele>
        <time>2015-07-06T15:46:52.000Z</time>
      </trkpt>
      <trkpt lat="44.8826" lon="5.68057">
        <ele>484</ele>
        <time>2015-07-06T15:46:55.000Z</time>
      </trkpt>
      <trkpt lat="44.88268" lon="5.68078">
        <ele>484</ele>
        <time>2015-07-06T15:46:58.000Z</time>
      </trkpt>
      <trkpt lat="44.88275" lon="5.68092">
        <ele>484</ele>
        <time>2015-07-06T15:47:00.000Z</time>
      </trkpt>
      <trkpt lat="44.8828" lon="5.68108">
        <ele>484</ele>
        <time>2015-07-06T15:47:02.000Z</time>
      </trkpt>
      <trkpt lat="44.88283" lon="5.68117">
        <ele>484</ele>
        <time>2015-07-06T15:47:03.000Z</time>
      </trkpt>
      <trkpt lat="44.88302" lon="5.68155">
        <ele>484</ele>
        <time>2015-07-06T15:47:08.000Z</time>
      </trkpt>
      <trkpt lat="44.88319" lon="5.68198">
        <ele>484</ele>
        <time>2015-07-06T15:47:13.000Z</time>
      </trkpt>
      <trkpt lat="44.88344" lon="5.6825">
        <ele>484</ele>
        <time>2015-07-06T15:47:19.000Z</time>
      </trkpt>
      <trkpt lat="44.88366" lon="5.68286">
        <ele>484</ele>
        <time>2015-07-06T15:47:24.000Z</time>
      </trkpt>
      <trkpt lat="44.88368" lon="5.68293">
        <ele>484</ele>
        <time>2015-07-06T15:47:25.000Z</time>
      </trkpt>
      <trkpt lat="44.88375" lon="5.68312">
        <ele>484</ele>
        <time>2015-07-06T15:47:28.000Z</time>
      </trkpt>
      <trkpt lat="44.88377" lon="5.68319">
        <ele>484</ele>
        <time>2015-07-06T15:47:29.000Z</time>
      </trkpt>
      <trkpt lat="44.8838" lon="5.68342">
        <ele>484</ele>
        <time>2015-07-06T15:47:32.000Z</time>
      </trkpt>
      <trkpt lat="44.88377" lon="5.68345">
        <ele>484</ele>
        <time>2015-07-06T15:47:33.000Z</time>
      </trkpt>
      <trkpt lat="44.88369" lon="5.68339">
        <ele>484</ele>
        <time>2015-07-06T15:47:35.000Z</time>
      </trkpt>
      <trkpt lat="44.88363" lon="5.68328">
        <ele>484</ele>
        <time>2015-07-06T15:47:37.000Z</time>
      </trkpt>
      <trkpt lat="44.88356" lon="5.68317">
        <ele>484</ele>
        <time>2015-07-06T15:47:39.000Z</time>
      </trkpt>
      <trkpt lat="44.8835" lon="5.68304">
        <ele>484</ele>
        <time>2015-07-06T15:47:41.000Z</time>
      </trkpt>
      <trkpt lat="44.88344" lon="5.68279">
        <ele>484</ele>
        <time>2015-07-06T15:47:44.000Z</time>
      </trkpt>
      <trkpt lat="44.88342" lon="5.68263">
        <ele>484</ele>
        <time>2015-07-06T15:47:46.000Z</time>
      </trkpt>
      <trkpt lat="44.8834" lon="5.68229">
        <ele>484</ele>
        <time>2015-07-06T15:47:50.000Z</time>
      </trkpt>
      <trkpt lat="44.88337" lon="5.68187">
        <ele>484</ele>
        <time>2015-07-06T15:47:55.000Z</time>
      </trkpt>
      <trkpt lat="44.88335" lon="5.68155">
        <ele>484</ele>
        <time>2015-07-06T15:47:59.000Z</time>
      </trkpt>
      <trkpt lat="44.88335" lon="5.68139">
        <ele>484</ele>
        <time>2015-07-06T15:48:01.000Z</time>
      </trkpt>
      <trkpt lat="44.88334" lon="5.68092">
        <ele>484</ele>
        <time>2015-07-06T15:48:07.000Z</time>
      </trkpt>
      <trkpt lat="44.8833" lon="5.68067">
        <ele>484</ele>
        <time>2015-07-06T15:48:11.000Z</time>
      </trkpt>
      <trkpt lat="44.88327" lon="5.68063">
        <ele>484</ele>
        <time>2015-07-06T15:48:12.000Z</time>
      </trkpt>
      <trkpt lat="44.88316" lon="5.6807">
        <ele>484</ele>
        <time>2015-07-06T15:48:15.000Z</time>
      </trkpt>
      <trkpt lat="44.88314" lon="5.68076">
        <ele>484</ele>
        <time>2015-07-06T15:48:18.000Z</time>
      </trkpt>
      <trkpt lat="44.88311" lon="5.68091">
        <ele>484</ele>
        <time>2015-07-06T15:48:21.000Z</time>
      </trkpt>
      <trkpt lat="44.88312" lon="5.68094">
        <ele>484</ele>
        <time>2015-07-06T15:48:22.000Z</time>
      </trkpt>
      <trkpt lat="44.8831" lon="5.68098">
        <ele>484</ele>
        <time>2015-07-06T15:48:24.000Z</time>
      </trkpt>
      <trkpt lat="44.88307" lon="5.68113">
        <ele>484</ele>
        <time>2015-07-06T15:48:27.000Z</time>
      </trkpt>
      <trkpt lat="44.88308" lon="5.6812">
        <ele>484</ele>
        <time>2015-07-06T15:48:28.000Z</time>
      </trkpt>
      <trkpt lat="44.8832" lon="5.6815">
        <ele>484</ele>
        <time>2015-07-06T15:48:32.000Z</time>
      </trkpt>
      <trkpt lat="44.88345" lon="5.68206">
        <ele>484</ele>
        <time>2015-07-06T15:48:39.000Z</time>
      </trkpt>
      <trkpt lat="44.88376" lon="5.68264">
        <ele>484</ele>
        <time>2015-07-06T15:48:46.000Z</time>
      </trkpt>
      <trkpt lat="44.88384" lon="5.68279">
        <ele>484</ele>
        <time>2015-07-06T15:48:48.000Z</time>
      </trkpt>
      <trkpt lat="44.88396" lon="5.68304">
        <ele>484</ele>
        <time>2015-07-06T15:48:51.000Z</time>
      </trkpt>
      <trkpt lat="44.88404" lon="5.68332">
        <ele>484</ele>
        <time>2015-07-06T15:48:55.000Z</time>
      </trkpt>
      <trkpt lat="44.88405" lon="5.68359">
        <ele>484</ele>
        <time>2015-07-06T15:48:59.000Z</time>
      </trkpt>
      <trkpt lat="44.88404" lon="5.68362">
        <ele>484</ele>
        <time>2015-07-06T15:49:00.000Z</time>
      </trkpt>
      <trkpt lat="44.88398" lon="5.68365">
        <ele>484</ele>
        <time>2015-07-06T15:49:03.000Z</time>
      </trkpt>
      <trkpt lat="44.88392" lon="5.68365">
        <ele>484</ele>
        <time>2015-07-06T15:49:06.000Z</time>
      </trkpt>
      <trkpt lat="44.88382" lon="5.68369">
        <ele>484</ele>
        <time>2015-07-06T15:49:11.000Z</time>
      </trkpt>
      <trkpt lat="44.88382" lon="5.68369">
        <ele>484</ele>
        <time>2015-07-06T15:49:14.000Z</time>
      </trkpt>
      <trkpt lat="44.88374" lon="5.68373">
        <ele>484</ele>
        <time>2015-07-06T15:49:20.000Z</time>
      </trkpt>
      <trkpt lat="44.88366" lon="5.68366">
        <ele>484</ele>
        <time>2015-07-06T15:49:23.000Z</time>
      </trkpt>
      <trkpt lat="44.88362" lon="5.68366">
        <ele>484</ele>
        <time>2015-07-06T15:49:25.000Z</time>
      </trkpt>
      <trkpt lat="44.88359" lon="5.68368">
        <ele>484</ele>
        <time>2015-07-06T15:49:26.000Z</time>
      </trkpt>
      <trkpt lat="44.88347" lon="5.68357">
        <ele>484</ele>
        <time>2015-07-06T15:49:30.000Z</time>
      </trkpt>
      <trkpt lat="44.88339" lon="5.68329">
        <ele>484</ele>
        <time>2015-07-06T15:49:34.000Z</time>
      </trkpt>
      <trkpt lat="44.88336" lon="5.68322">
        <ele>484</ele>
        <time>2015-07-06T15:49:35.000Z</time>
      </trkpt>
      <trkpt lat="44.8833" lon="5.68295">
        <ele>484</ele>
        <time>2015-07-06T15:49:38.000Z</time>
      </trkpt>
      <trkpt lat="44.88319" lon="5.6824">
        <ele>484</ele>
        <time>2015-07-06T15:49:44.000Z</time>
      </trkpt>
      <trkpt lat="44.88309" lon="5.68214">
        <ele>484</ele>
        <time>2015-07-06T15:49:47.000Z</time>
      </trkpt>
      <trkpt lat="44.88307" lon="5.68205">
        <ele>484</ele>
        <time>2015-07-06T15:49:48.000Z</time>
      </trkpt>
      <trkpt lat="44.88292" lon="5.68137">
        <ele>484</ele>
        <time>2015-07-06T15:49:55.000Z</time>
      </trkpt>
      <trkpt lat="44.88285" lon="5.68096">
        <ele>484</ele>
        <time>2015-07-06T15:50:00.000Z</time>
      </trkpt>
      <trkpt lat="44.88282" lon="5.6809">
        <ele>484</ele>
        <time>2015-07-06T15:50:01.000Z</time>
      </trkpt>
      <trkpt lat="44.88274" lon="5.68068">
        <ele>484</ele>
        <time>2015-07-06T15:50:04.000Z</time>
      </trkpt>
      <trkpt lat="44.88268" lon="5.68047">
        <ele>484</ele>
        <time>2015-07-06T15:50:07.000Z</time>
      </trkpt>
      <trkpt lat="44.8826" lon="5.68042">
        <ele>484</ele>
        <time>2015-07-06T15:50:10.000Z</time>
      </trkpt>
      <trkpt lat="44.88258" lon="5.6805">
        <ele>484</ele>
        <time>2015-07-06T15:50:13.000Z</time>
      </trkpt>
      <trkpt lat="44.88255" lon="5.68055">
        <ele>484</ele>
        <time>2015-07-06T15:50:17.000Z</time>
      </trkpt>
      <trkpt lat="44.88254" lon="5.68072">
        <ele>484</ele>
        <time>2015-07-06T15:50:21.000Z</time>
      </trkpt>
      <trkpt lat="44.88254" lon="5.68077">
        <ele>484</ele>
        <time>2015-07-06T15:50:23.000Z</time>
      </trkpt>
      <trkpt lat="44.88253" lon="5.6808">
        <ele>484</ele>
        <time>2015-07-06T15:50:24.000Z</time>
      </trkpt>
      <trkpt lat="44.88252" lon="5.68103">
        <ele>484</ele>
        <time>2015-07-06T15:50:28.000Z</time>
      </trkpt>
      <trkpt lat="44.88254" lon="5.68125">
        <ele>484</ele>
        <time>2015-07-06T15:50:32.000Z</time>
      </trkpt>
      <trkpt lat="44.88258" lon="5.68144">
        <ele>484</ele>
        <time>2015-07-06T15:50:35.000Z</time>
      </trkpt>
      <trkpt lat="44.88262" lon="5.68155">
        <ele>484</ele>
        <time>2015-07-06T15:50:37.000Z</time>
      </trkpt>
      <trkpt lat="44.88261" lon="5.68166">
        <ele>484</ele>
        <time>2015-07-06T15:50:39.000Z</time>
      </trkpt>
      <trkpt lat="44.88266" lon="5.68186">
        <ele>484</ele>
        <time>2015-07-06T15:50:43.000Z</time>
      </trkpt>
      <trkpt lat="44.88264" lon="5.68194">
        <ele>484</ele>
        <time>2015-07-06T15:50:46.000Z</time>
      </trkpt>
      <trkpt lat="44.88262" lon="5.68198">
        <ele>484</ele>
        <time>2015-07-06T15:50:47.000Z</time>
      </trkpt>
      <trkpt lat="44.88263" lon="5.68205">
        <ele>484</ele>
        <time>2015-07-06T15:50:48.000Z</time>
      </trkpt>
      <trkpt lat="44.88264" lon="5.68209">
        <ele>484</ele>
        <time>2015-07-06T15:50:49.000Z</time>
      </trkpt>
      <trkpt lat="44.88267" lon="5.68219">
        <ele>484</ele>
        <time>2015-07-06T15:50:54.000Z</time>
      </trkpt>
      <trkpt lat="44.88264" lon="5.68219">
        <ele>484</ele>
        <time>2015-07-06T15:50:55.000Z</time>
      </trkpt>
      <trkpt lat="44.88261" lon="5.68221">
        <ele>484</ele>
        <time>2015-07-06T15:51:00.000Z</time>
      </trkpt>
      <trkpt lat="44.88259" lon="5.68221">
        <ele>484</ele>
        <time>2015-07-06T15:51:05.000Z</time>
      </trkpt>
      <trkpt lat="44.88257" lon="5.68222">
        <ele>484</ele>
        <time>2015-07-06T15:51:13.000Z</time>
      </trkpt>
      <trkpt lat="44.88256" lon="5.68231">
        <ele>484</ele>
        <time>2015-07-06T15:51:17.000Z</time>
      </trkpt>
      <trkpt lat="44.88257" lon="5.68235">
        <ele>484</ele>
        <time>2015-07-06T15:51:18.000Z</time>
      </trkpt>
      <trkpt lat="44.88256" lon="5.6824">
        <ele>484</ele>
        <time>2015-07-06T15:51:21.000Z</time>
      </trkpt>
      <trkpt lat="44.88254" lon="5.68243">
        <ele>484</ele>
        <time>2015-07-06T15:51:22.000Z</time>
      </trkpt>
      <trkpt lat="44.88252" lon="5.68254">
        <ele>484</ele>
        <time>2015-07-06T15:51:24.000Z</time>
      </trkpt>
      <trkpt lat="44.88252" lon="5.6826">
        <ele>484</ele>
        <time>2015-07-06T15:51:25.000Z</time>
      </trkpt>
      <trkpt lat="44.88254" lon="5.6827">
        <ele>484</ele>
        <time>2015-07-06T15:51:28.000Z</time>
      </trkpt>
      <trkpt lat="44.88253" lon="5.68273">
        <ele>484</ele>
        <time>2015-07-06T15:51:29.000Z</time>
      </trkpt>
      <trkpt lat="44.88249" lon="5.68289">
        <ele>484</ele>
        <time>2015-07-06T15:51:32.000Z</time>
      </trkpt>
      <trkpt lat="44.88252" lon="5.68301">
        <ele>484</ele>
        <time>2015-07-06T15:51:35.000Z</time>
      </trkpt>
      <trkpt lat="44.88248" lon="5.68309">
        <ele>484</ele>
        <time>2015-07-06T15:51:37.000Z</time>
      </trkpt>
      <trkpt lat="44.88245" lon="5.68313">
        <ele>484</ele>
        <time>2015-07-06T15:51:38.000Z</time>
      </trkpt>
      <trkpt lat="44.88246" lon="5.68328">
        <ele>484</ele>
        <time>2015-07-06T15:51:40.000Z</time>
      </trkpt>
      <trkpt lat="44.88248" lon="5.68332">
        <ele>484</ele>
        <time>2015-07-06T15:51:41.000Z</time>
      </trkpt>
      <trkpt lat="44.88249" lon="5.68359">
        <ele>484</ele>
        <time>2015-07-06T15:51:45.000Z</time>
      </trkpt>
      <trkpt lat="44.88254" lon="5.6837">
        <ele>484</ele>
        <time>2015-07-06T15:51:47.000Z</time>
      </trkpt>
      <trkpt lat="44.88255" lon="5.68377">
        <ele>484</ele>
        <time>2015-07-06T15:51:48.000Z</time>
      </trkpt>
      <trkpt lat="44.88255" lon="5.68386">
        <ele>484</ele>
        <time>2015-07-06T15:51:49.000Z</time>
      </trkpt>
      <trkpt lat="44.88261" lon="5.68409">
        <ele>484</ele>
        <time>2015-07-06T15:51:52.000Z</time>
      </trkpt>
      <trkpt lat="44.88265" lon="5.68425">
        <ele>484</ele>
        <time>2015-07-06T15:51:54.000Z</time>
      </trkpt>
      <trkpt lat="44.88271" lon="5.68447">
        <ele>484</ele>
        <time>2015-07-06T15:51:57.000Z</time>
      </trkpt>
      <trkpt lat="44.88284" lon="5.68488">
        <ele>484</ele>
        <time>2015-07-06T15:52:02.000Z</time>
      </trkpt>
      <trkpt lat="44.88287" lon="5.68492">
        <ele>484</ele>
        <time>2015-07-06T15:52:03.000Z</time>
      </trkpt>
      <trkpt lat="44.8829" lon="5.68501">
        <ele>484</ele>
        <time>2015-07-06T15:52:05.000Z</time>
      </trkpt>
      <trkpt lat="44.8829" lon="5.68502">
        <ele>484</ele>
        <time>2015-07-06T15:52:06.000Z</time>
      </trkpt>
      <trkpt lat="44.88286" lon="5.68506">
        <ele>484</ele>
        <time>2015-07-06T15:52:08.000Z</time>
      </trkpt>
      <trkpt lat="44.88287" lon="5.68507">
        <ele>484</ele>
        <time>2015-07-06T15:52:10.000Z</time>
      </trkpt>
      <trkpt lat="44.88285" lon="5.68509">
        <ele>484</ele>
        <time>2015-07-06T15:52:11.000Z</time>
      </trkpt>
      <trkpt lat="44.88283" lon="5.68511">
        <ele>484</ele>
        <time>2015-07-06T15:52:13.000Z</time>
      </trkpt>
      <trkpt lat="44.88277" lon="5.6851">
        <ele>484</ele>
        <time>2015-07-06T15:52:15.000Z</time>
      </trkpt>
      <trkpt lat="44.8827" lon="5.68507">
        <ele>484</ele>
        <time>2015-07-06T15:52:19.000Z</time>
      </trkpt>
      <trkpt lat="44.88272" lon="5.68507">
        <ele>484</ele>
        <time>2015-07-06T15:52:20.000Z</time>
      </trkpt>
      <trkpt lat="44.88276" lon="5.68516">
        <ele>484</ele>
        <time>2015-07-06T15:52:30.000Z</time>
      </trkpt>
      <trkpt lat="44.88275" lon="5.68514">
        <ele>484</ele>
        <time>2015-07-06T15:52:36.000Z</time>
      </trkpt>
      <trkpt lat="44.88273" lon="5.68515">
        <ele>484</ele>
        <time>2015-07-06T15:52:41.000Z</time>
      </trkpt>
      <trkpt lat="44.8827" lon="5.68515">
        <ele>484</ele>
        <time>2015-07-06T15:52:46.000Z</time>
      </trkpt>
      <trkpt lat="44.88267" lon="5.68517">
        <ele>484</ele>
        <time>2015-07-06T15:52:54.000Z</time>
      </trkpt>
      <trkpt lat="44.88265" lon="5.68518">
        <ele>484</ele>
        <time>2015-07-06T15:53:01.000Z</time>
      </trkpt>
      <trkpt lat="44.88263" lon="5.68515">
        <ele>484</ele>
        <time>2015-07-06T15:53:06.000Z</time>
      </trkpt>
      <trkpt lat="44.8826" lon="5.68512">
        <ele>484</ele>
        <time>2015-07-06T15:53:13.000Z</time>
      </trkpt>
      <trkpt lat="44.88256" lon="5.68516">
        <ele>484</ele>
        <time>2015-07-06T15:53:19.000Z</time>
      </trkpt>
      <trkpt lat="44.88255" lon="5.68518">
        <ele>484</ele>
        <time>2015-07-06T15:53:25.000Z</time>
      </trkpt>
      <trkpt lat="44.88254" lon="5.6852">
        <ele>484</ele>
        <time>2015-07-06T15:53:31.000Z</time>
      </trkpt>
      <trkpt lat="44.88243" lon="5.68533">
        <ele>484</ele>
        <time>2015-07-06T15:53:56.000Z</time>
      </trkpt>
      <trkpt lat="44.88243" lon="5.68532">
        <ele>484</ele>
        <time>2015-07-06T15:54:02.000Z</time>
      </trkpt>
      <trkpt lat="44.88265" lon="5.68507">
        <ele>484</ele>
        <time>2015-07-06T15:54:26.000Z</time>
      </trkpt>
      <trkpt lat="44.88227" lon="5.6855">
        <ele>484</ele>
        <time>2015-07-06T15:54:45.000Z</time>
      </trkpt>
      <trkpt lat="44.88217" lon="5.68552">
        <ele>484</ele>
        <time>2015-07-06T15:55:01.000Z</time>
      </trkpt>
      <trkpt lat="44.88165" lon="5.68568">
        <ele>484</ele>
        <time>2015-07-06T15:56:47.000Z</time>
      </trkpt>
      <trkpt lat="44.88168" lon="5.68575">
        <ele>484</ele>
        <time>2015-07-06T15:56:54.000Z</time>
      </trkpt>
      <trkpt lat="44.88166" lon="5.68574">
        <ele>484</ele>
        <time>2015-07-06T15:56:58.000Z</time>
      </trkpt>
      <trkpt lat="44.88164" lon="5.68573">
        <ele>484</ele>
        <time>2015-07-06T15:57:10.000Z</time>
      </trkpt>
      <trkpt lat="44.88161" lon="5.6857">
        <ele>484</ele>
        <time>2015-07-06T15:57:19.000Z</time>
      </trkpt>
      <trkpt lat="44.88159" lon="5.68565">
        <ele>484</ele>
        <time>2015-07-06T15:57:33.000Z</time>
      </trkpt>
      <trkpt lat="44.88158" lon="5.68568">
        <ele>484</ele>
        <time>2015-07-06T15:57:36.000Z</time>
      </trkpt>
      <trkpt lat="44.88156" lon="5.6857">
        <ele>484</ele>
        <time>2015-07-06T15:57:40.000Z</time>
      </trkpt>
      <trkpt lat="44.88154" lon="5.6857">
        <ele>484</ele>
        <time>2015-07-06T15:58:03.000Z</time>
      </trkpt>
      <trkpt lat="44.88152" lon="5.68573">
        <ele>484</ele>
        <time>2015-07-06T15:58:06.000Z</time>
      </trkpt>
      <trkpt lat="44.88109" lon="5.68598">
        <ele>484</ele>
        <time>2015-07-06T16:00:14.000Z</time>
      </trkpt>
      <trkpt lat="44.88108" lon="5.68598">
        <ele>484</ele>
        <time>2015-07-06T16:00:15.000Z</time>
      </trkpt>
      <trkpt lat="44.88084" lon="5.68593">
        <ele>484</ele>
        <time>2015-07-06T16:00:50.000Z</time>
      </trkpt>
      <trkpt lat="44.88049" lon="5.68645">
        <ele>484</ele>
        <time>2015-07-06T16:02:45.000Z</time>
      </trkpt>
      <trkpt lat="44.88048" lon="5.68646">
        <ele>484</ele>
        <time>2015-07-06T16:02:47.000Z</time>
      </trkpt>
      <trkpt lat="44.88046" lon="5.6865">
        <ele>484</ele>
        <time>2015-07-06T16:02:54.000Z</time>
      </trkpt>
      <trkpt lat="44.88044" lon="5.68654">
        <ele>484</ele>
        <time>2015-07-06T16:03:04.000Z</time>
      </trkpt>
      <trkpt lat="44.88042" lon="5.68656">
        <ele>484</ele>
        <time>2015-07-06T16:03:10.000Z</time>
      </trkpt>
      <trkpt lat="44.8804" lon="5.68659">
        <ele>484</ele>
        <time>2015-07-06T16:03:17.000Z</time>
      </trkpt>
      <trkpt lat="44.88037" lon="5.68661">
        <ele>484</ele>
        <time>2015-07-06T16:03:27.000Z</time>
      </trkpt>
      <trkpt lat="44.88033" lon="5.68664">
        <ele>484</ele>
        <time>2015-07-06T16:03:38.000Z</time>
      </trkpt>
      <trkpt lat="44.88024" lon="5.68664">
        <ele>484</ele>
        <time>2015-07-06T16:03:56.000Z</time>
      </trkpt>
      <trkpt lat="44.88024" lon="5.68661">
        <ele>484</ele>
        <time>2015-07-06T16:04:05.000Z</time>
      </trkpt>
    </trkseg>
  </trk>
</gpx>